sensor_id;sensor_type;location;lat;lon;timestamp;pressure;altitude;pressure_sealevel;temperature
15360;BMP280;7779;49.596;11.070;2023-06-19T00:00:09;97835.50;;;24.12
15360;BMP280;7779;49.596;11.070;2023-06-19T00:02:42;97838.88;;;24.14
15360;BMP280;7779;49.596;11.070;2023-06-19T00:05:09;97838.06;;;24.15
15360;BMP280;7779;49.596;11.070;2023-06-19T00:07:39;97831.22;;;24.16
15360;BMP280;7779;49.596;11.070;2023-06-19T00:10:06;97832.06;;;24.16
15360;BMP280;7779;49.596;11.070;2023-06-19T00:12:32;97827.81;;;24.18
15360;BMP280;7779;49.596;11.070;2023-06-19T00:14:58;97831.22;;;24.17
15360;BMP280;7779;49.596;11.070;2023-06-19T00:17:24;97829.50;;;24.16
15360;BMP280;7779;49.596;11.070;2023-06-19T00:19:52;97831.22;;;24.16
15360;BMP280;7779;49.596;11.070;2023-06-19T00:22:18;97825.25;;;24.15
15360;BMP280;7779;49.596;11.070;2023-06-19T00:24:44;97829.53;;;24.15
15360;BMP280;7779;49.596;11.070;2023-06-19T00:27:10;97823.53;;;24.14
15360;BMP280;7779;49.596;11.070;2023-06-19T00:29:36;97825.25;;;24.15
15360;BMP280;7779;49.596;11.070;2023-06-19T00:32:02;97830.38;;;24.15
15360;BMP280;7779;49.596;11.070;2023-06-19T00:34:30;97826.09;;;24.17
15360;BMP280;7779;49.596;11.070;2023-06-19T00:36:57;97824.38;;;24.16
15360;BMP280;7779;49.596;11.070;2023-06-19T00:39:24;97822.69;;;24.17
15360;BMP280;7779;49.596;11.070;2023-06-19T00:41:55;97822.69;;;24.17
15360;BMP280;7779;49.596;11.070;2023-06-19T00:44:22;97825.25;;;24.15
15360;BMP280;7779;49.596;11.070;2023-06-19T00:46:56;97823.53;;;24.14
15360;BMP280;7779;49.596;11.070;2023-06-19T00:49:23;97824.41;;;24.12
15360;BMP280;7779;49.596;11.070;2023-06-19T00:51:51;97826.97;;;24.10
15360;BMP280;7779;49.596;11.070;2023-06-19T00:54:18;97826.13;;;24.08
15360;BMP280;7779;49.596;11.070;2023-06-19T00:56:44;97832.97;;;24.06
15360;BMP280;7779;49.596;11.070;2023-06-19T00:59:19;97828.69;;;24.05
15360;BMP280;7779;49.596;11.070;2023-06-19T01:01:45;97830.41;;;24.03
15360;BMP280;7779;49.596;11.070;2023-06-19T01:04:12;97833.84;;;24.02
15360;BMP280;7779;49.596;11.070;2023-06-19T01:07:05;97829.56;;;24.04
15360;BMP280;7779;49.596;11.070;2023-06-19T01:09:51;97827.88;;;24.02
15360;BMP280;7779;49.596;11.070;2023-06-19T01:12:28;97815.94;;;23.98
15360;BMP280;7779;49.596;11.070;2023-06-19T01:15:03;97821.94;;;23.97
15360;BMP280;7779;49.596;11.070;2023-06-19T01:17:30;97828.75;;;23.93
15360;BMP280;7779;49.596;11.070;2023-06-19T01:19:57;97822.81;;;23.92
15360;BMP280;7779;49.596;11.070;2023-06-19T01:22:30;97820.25;;;23.89
15360;BMP280;7779;49.596;11.070;2023-06-19T01:24:58;97821.97;;;23.84
15360;BMP280;7779;49.596;11.070;2023-06-19T01:27:25;97821.97;;;23.84
15360;BMP280;7779;49.596;11.070;2023-06-19T01:29:56;97821.13;;;23.80
15360;BMP280;7779;49.596;11.070;2023-06-19T01:35:09;97812.63;;;23.75
15360;BMP280;7779;49.596;11.070;2023-06-19T01:37:37;97815.19;;;23.74
15360;BMP280;7779;49.596;11.070;2023-06-19T01:40:08;97816.91;;;23.70
15360;BMP280;7779;49.596;11.070;2023-06-19T01:42:38;97824.56;;;23.67
15360;BMP280;7779;49.596;11.070;2023-06-19T01:45:06;97812.66;;;23.63
15360;BMP280;7779;49.596;11.070;2023-06-19T01:47:32;97819.50;;;23.60
15360;BMP280;7779;49.596;11.070;2023-06-19T01:49:58;97810.09;;;23.56
15360;BMP280;7779;49.596;11.070;2023-06-19T01:52:24;97816.06;;;23.52
15360;BMP280;7779;49.596;11.070;2023-06-19T01:54:51;97815.22;;;23.49
15360;BMP280;7779;49.596;11.070;2023-06-19T01:57:17;97819.50;;;23.42
15360;BMP280;7779;49.596;11.070;2023-06-19T01:59:43;97831.44;;;23.40
15360;BMP280;7779;49.596;11.070;2023-06-19T02:02:10;97827.19;;;23.33
15360;BMP280;7779;49.596;11.070;2023-06-19T02:04:36;97821.22;;;23.30
15360;BMP280;7779;49.596;11.070;2023-06-19T02:07:02;97822.94;;;23.23
15360;BMP280;7779;49.596;11.070;2023-06-19T02:09:28;97827.19;;;23.18
15360;BMP280;7779;49.596;11.070;2023-06-19T02:11:54;97828.06;;;23.13
15360;BMP280;7779;49.596;11.070;2023-06-19T02:14:19;97828.91;;;23.08
15360;BMP280;7779;49.596;11.070;2023-06-19T02:16:46;97825.53;;;23.01
15360;BMP280;7779;49.596;11.070;2023-06-19T02:19:12;97833.16;;;22.94
15360;BMP280;7779;49.596;11.070;2023-06-19T02:21:38;97823.78;;;22.87
15360;BMP280;7779;49.596;11.070;2023-06-19T02:24:05;97821.22;;;22.79
15360;BMP280;7779;49.596;11.070;2023-06-19T02:26:31;97823.75;;;22.72
15360;BMP280;7779;49.596;11.070;2023-06-19T02:28:57;97824.63;;;22.64
15360;BMP280;7779;49.596;11.070;2023-06-19T02:31:23;97824.59;;;22.58
15360;BMP280;7779;49.596;11.070;2023-06-19T02:33:49;97827.13;;;22.50
15360;BMP280;7779;49.596;11.070;2023-06-19T02:36:18;97826.31;;;22.45
15360;BMP280;7779;49.596;11.070;2023-06-19T02:38:48;97823.72;;;22.39
15360;BMP280;7779;49.596;11.070;2023-06-19T02:41:15;97833.94;;;22.35
15360;BMP280;7779;49.596;11.070;2023-06-19T02:43:42;97833.03;;;22.29
15360;BMP280;7779;49.596;11.070;2023-06-19T02:46:09;97835.59;;;22.26
15360;BMP280;7779;49.596;11.070;2023-06-19T02:48:35;97835.56;;;22.21
15360;BMP280;7779;49.596;11.070;2023-06-19T02:51:01;97833.84;;;22.16
15360;BMP280;7779;49.596;11.070;2023-06-19T02:53:26;97832.13;;;22.13
15360;BMP280;7779;49.596;11.070;2023-06-19T02:55:52;97832.09;;;22.09
15360;BMP280;7779;49.596;11.070;2023-06-19T02:58:18;97826.13;;;22.05
15360;BMP280;7779;49.596;11.070;2023-06-19T03:00:45;97828.69;;;22.01
15360;BMP280;7779;49.596;11.070;2023-06-19T03:03:11;97827.81;;;21.99
15360;BMP280;7779;49.596;11.070;2023-06-19T03:05:38;97834.63;;;21.97
15360;BMP280;7779;49.596;11.070;2023-06-19T03:08:04;97838.88;;;21.95
15360;BMP280;7779;49.596;11.070;2023-06-19T03:10:31;97843.97;;;21.98
15360;BMP280;7779;49.596;11.070;2023-06-19T03:12:58;97848.22;;;21.99
15360;BMP280;7779;49.596;11.070;2023-06-19T03:15:25;97855.88;;;22.02
15360;BMP280;7779;49.596;11.070;2023-06-19T03:17:53;97855.91;;;22.05
15360;BMP280;7779;49.596;11.070;2023-06-19T03:20:20;97859.31;;;22.07
15360;BMP280;7779;49.596;11.070;2023-06-19T03:22:53;97857.59;;;22.09
15360;BMP280;7779;49.596;11.070;2023-06-19T03:25:19;97865.28;;;22.10
15360;BMP280;7779;49.596;11.070;2023-06-19T03:27:46;97861.88;;;22.13
15360;BMP280;7779;49.596;11.070;2023-06-19T03:30:12;97870.44;;;22.18
15360;BMP280;7779;49.596;11.070;2023-06-19T03:32:40;97873.00;;;22.21
15360;BMP280;7779;49.596;11.070;2023-06-19T03:35:08;97878.97;;;22.24
15360;BMP280;7779;49.596;11.070;2023-06-19T03:37:40;97891.75;;;22.29
15360;BMP280;7779;49.596;11.070;2023-06-19T03:40:07;97892.63;;;22.35
15360;BMP280;7779;49.596;11.070;2023-06-19T03:42:39;97896.91;;;22.40
15360;BMP280;7779;49.596;11.070;2023-06-19T03:45:05;97900.31;;;22.45
15360;BMP280;7779;49.596;11.070;2023-06-19T03:47:31;97895.22;;;22.54
15360;BMP280;7779;49.596;11.070;2023-06-19T03:49:57;97909.72;;;22.69
15360;BMP280;7779;49.596;11.070;2023-06-19T03:52:24;97912.31;;;22.85
15360;BMP280;7779;49.596;11.070;2023-06-19T03:54:49;97911.50;;;22.99
15360;BMP280;7779;49.596;11.070;2023-06-19T03:57:15;97916.66;;;23.11
15360;BMP280;7779;49.596;11.070;2023-06-19T03:59:41;97912.38;;;23.20
15360;BMP280;7779;49.596;11.070;2023-06-19T04:02:09;97916.66;;;23.29
15360;BMP280;7779;49.596;11.070;2023-06-19T04:04:35;97921.75;;;23.36
15360;BMP280;7779;49.596;11.070;2023-06-19T04:07:01;97921.75;;;23.44
15360;BMP280;7779;49.596;11.070;2023-06-19T04:09:27;97917.50;;;23.47
15360;BMP280;7779;49.596;11.070;2023-06-19T04:11:53;97915.81;;;23.52
15360;BMP280;7779;49.596;11.070;2023-06-19T04:14:19;97913.22;;;23.55
15360;BMP280;7779;49.596;11.070;2023-06-19T04:16:44;97916.66;;;23.60
15360;BMP280;7779;49.596;11.070;2023-06-19T04:19:10;97909.84;;;23.63
15360;BMP280;7779;49.596;11.070;2023-06-19T04:21:36;97907.25;;;23.69
15360;BMP280;7779;49.596;11.070;2023-06-19T04:24:04;97914.06;;;23.75
15360;BMP280;7779;49.596;11.070;2023-06-19T04:26:35;97920.88;;;23.82
15360;BMP280;7779;49.596;11.070;2023-06-19T04:29:02;97908.94;;;23.88
15360;BMP280;7779;49.596;11.070;2023-06-19T04:31:28;97914.03;;;23.95
15360;BMP280;7779;49.596;11.070;2023-06-19T04:33:55;97909.78;;;24.02
15360;BMP280;7779;49.596;11.070;2023-06-19T04:36:22;97908.88;;;24.10
15360;BMP280;7779;49.596;11.070;2023-06-19T04:38:48;97911.41;;;24.19
15360;BMP280;7779;49.596;11.070;2023-06-19T04:41:17;97912.25;;;24.30
15360;BMP280;7779;49.596;11.070;2023-06-19T04:43:43;97918.16;;;24.41
15360;BMP280;7779;49.596;11.070;2023-06-19T04:46:08;97925.81;;;24.53
15360;BMP280;7779;49.596;11.070;2023-06-19T04:48:34;97924.00;;;24.67
15360;BMP280;7779;49.596;11.070;2023-06-19T04:51:03;97928.25;;;24.78
15360;BMP280;7779;49.596;11.070;2023-06-19T04:53:28;97927.31;;;24.88
15360;BMP280;7779;49.596;11.070;2023-06-19T04:55:54;97929.00;;;24.96
15360;BMP280;7779;49.596;11.070;2023-06-19T04:58:21;97941.78;;;25.04
15360;BMP280;7779;49.596;11.070;2023-06-19T05:00:48;97930.63;;;25.09
15360;BMP280;7779;49.596;11.070;2023-06-19T05:03:17;97932.28;;;25.17
15360;BMP280;7779;49.596;11.070;2023-06-19T05:05:44;97931.38;;;25.23
15360;BMP280;7779;49.596;11.070;2023-06-19T05:08:10;97936.47;;;25.27
15360;BMP280;7779;49.596;11.070;2023-06-19T05:10:36;97936.44;;;25.30
15360;BMP280;7779;49.596;11.070;2023-06-19T05:13:01;97932.16;;;25.31
15360;BMP280;7779;49.596;11.070;2023-06-19T05:15:27;97931.28;;;25.35
15360;BMP280;7779;49.596;11.070;2023-06-19T05:17:54;97927.88;;;25.36
15360;BMP280;7779;49.596;11.070;2023-06-19T05:20:19;97921.84;;;25.40
15360;BMP280;7779;49.596;11.070;2023-06-19T05:22:45;97932.03;;;25.46
15360;BMP280;7779;49.596;11.070;2023-06-19T05:25:11;97925.97;;;25.57
15360;BMP280;7779;49.596;11.070;2023-06-19T05:27:37;97932.72;;;25.71
15360;BMP280;7779;49.596;11.070;2023-06-19T05:30:04;97939.28;;;25.97
15360;BMP280;7779;49.596;11.070;2023-06-19T05:32:30;97939.03;;;26.24
15360;BMP280;7779;49.596;11.070;2023-06-19T05:34:56;97947.22;;;26.54
15360;BMP280;7779;49.596;11.070;2023-06-19T05:37:22;97939.22;;;26.75
15360;BMP280;7779;49.596;11.070;2023-06-19T05:39:48;97936.53;;;26.88
15360;BMP280;7779;49.596;11.070;2023-06-19T05:42:14;97941.50;;;26.99
15360;BMP280;7779;49.596;11.070;2023-06-19T05:44:40;97948.22;;;27.09
15360;BMP280;7779;49.596;11.070;2023-06-19T05:47:06;97948.91;;;27.19
15360;BMP280;7779;49.596;11.070;2023-06-19T05:49:32;97952.19;;;27.27
15360;BMP280;7779;49.596;11.070;2023-06-19T05:51:57;97957.22;;;27.36
15360;BMP280;7779;49.596;11.070;2023-06-19T05:54:26;97965.63;;;27.49
15360;BMP280;7779;49.596;11.070;2023-06-19T05:56:53;97961.13;;;27.62
15360;BMP280;7779;49.596;11.070;2023-06-19T05:59:18;97971.00;;;27.85
15360;BMP280;7779;49.596;11.070;2023-06-19T06:01:44;97969.75;;;28.09
15360;BMP280;7779;49.596;11.070;2023-06-19T06:04:10;97969.31;;;28.30
15360;BMP280;7779;49.596;11.070;2023-06-19T06:06:36;97977.59;;;28.47
15360;BMP280;7779;49.596;11.070;2023-06-19T06:09:01;97989.38;;;28.60
15360;BMP280;7779;49.596;11.070;2023-06-19T06:11:27;97979.75;;;28.69
15360;BMP280;7779;49.596;11.070;2023-06-19T06:13:53;97983.94;;;28.74
15360;BMP280;7779;49.596;11.070;2023-06-19T06:16:18;97975.38;;;28.72
15360;BMP280;7779;49.596;11.070;2023-06-19T06:18:45;97986.66;;;28.69
15360;BMP280;7779;49.596;11.070;2023-06-19T06:21:11;97975.44;;;28.70
15360;BMP280;7779;49.596;11.070;2023-06-19T06:23:40;97980.31;;;28.83
15360;BMP280;7779;49.596;11.070;2023-06-19T06:26:06;97978.97;;;29.06
15360;BMP280;7779;49.596;11.070;2023-06-19T06:28:32;97980.88;;;29.36
15360;BMP280;7779;49.596;11.070;2023-06-19T06:30:57;97975.84;;;29.66
15360;BMP280;7779;49.596;11.070;2023-06-19T06:33:23;97973.56;;;29.89
15360;BMP280;7779;49.596;11.070;2023-06-19T06:35:49;97980.00;;;30.06
15360;BMP280;7779;49.596;11.070;2023-06-19T06:38:17;97982.31;;;30.16
15360;BMP280;7779;49.596;11.070;2023-06-19T06:40:43;97995.19;;;30.18
15360;BMP280;7779;49.596;11.070;2023-06-19T06:43:08;98002.94;;;30.18
15360;BMP280;7779;49.596;11.070;2023-06-19T06:45:34;98000.50;;;30.12
15360;BMP280;7779;49.596;11.070;2023-06-19T06:48:04;97999.00;;;30.03
15360;BMP280;7779;49.596;11.070;2023-06-19T06:50:30;98007.84;;;29.95
15360;BMP280;7779;49.596;11.070;2023-06-19T06:52:57;98002.13;;;29.83
15360;BMP280;7779;49.596;11.070;2023-06-19T06:55:23;98011.81;;;29.73
15360;BMP280;7779;49.596;11.070;2023-06-19T06:57:49;98006.00;;;29.64
15360;BMP280;7779;49.596;11.070;2023-06-19T07:00:15;98015.72;;;29.54
15360;BMP280;7779;49.596;11.070;2023-06-19T07:02:44;98024.47;;;29.48
15360;BMP280;7779;49.596;11.070;2023-06-19T07:05:10;98022.91;;;29.41
15360;BMP280;7779;49.596;11.070;2023-06-19T07:07:36;98022.13;;;29.37
15360;BMP280;7779;49.596;11.070;2023-06-19T07:10:02;98023.09;;;29.33
15360;BMP280;7779;49.596;11.070;2023-06-19T07:12:28;98023.97;;;29.31
15360;BMP280;7779;49.596;11.070;2023-06-19T07:14:54;98014.59;;;29.28
15360;BMP280;7779;49.596;11.070;2023-06-19T07:17:20;98011.19;;;29.26
15360;BMP280;7779;49.596;11.070;2023-06-19T07:19:46;98025.75;;;29.29
15360;BMP280;7779;49.596;11.070;2023-06-19T07:22:13;98023.16;;;29.30
15360;BMP280;7779;49.596;11.070;2023-06-19T07:24:40;98028.25;;;29.33
15360;BMP280;7779;49.596;11.070;2023-06-19T07:27:06;98029.91;;;29.36
15360;BMP280;7779;49.596;11.070;2023-06-19T07:29:32;98041.84;;;29.40
15360;BMP280;7779;49.596;11.070;2023-06-19T07:31:58;98039.22;;;29.43
15360;BMP280;7779;49.596;11.070;2023-06-19T07:34:26;98028.03;;;29.42
15360;BMP280;7779;49.596;11.070;2023-06-19T07:36:52;98034.84;;;29.45
15360;BMP280;7779;49.596;11.070;2023-06-19T07:39:17;98039.06;;;29.49
15360;BMP280;7779;49.596;11.070;2023-06-19T07:41:44;98032.06;;;29.53
15360;BMP280;7779;49.596;11.070;2023-06-19T07:44:11;98038.72;;;29.63
15360;BMP280;7779;49.596;11.070;2023-06-19T07:46:37;98026.28;;;29.80
15360;BMP280;7779;49.596;11.070;2023-06-19T07:49:02;98030.88;;;30.02
15360;BMP280;7779;49.596;11.070;2023-06-19T07:51:28;98032.00;;;30.26
15360;BMP280;7779;49.596;11.070;2023-06-19T07:53:54;98026.25;;;30.48
15360;BMP280;7779;49.596;11.070;2023-06-19T07:56:20;98017.16;;;30.65
15360;BMP280;7779;49.596;11.070;2023-06-19T07:58:46;98026.22;;;30.79
15360;BMP280;7779;49.596;11.070;2023-06-19T08:01:12;98026.81;;;30.90
15360;BMP280;7779;49.596;11.070;2023-06-19T08:03:38;98024.78;;;31.00
15360;BMP280;7779;49.596;11.070;2023-06-19T08:06:04;98027.16;;;31.07
15360;BMP280;7779;49.596;11.070;2023-06-19T08:08:30;98024.50;;;31.10
15360;BMP280;7779;49.596;11.070;2023-06-19T08:10:55;98029.56;;;31.14
15360;BMP280;7779;49.596;11.070;2023-06-19T08:13:21;98023.47;;;31.15
15360;BMP280;7779;49.596;11.070;2023-06-19T08:15:47;98040.59;;;31.19
15360;BMP280;7779;49.596;11.070;2023-06-19T08:18:12;98033.63;;;31.21
15360;BMP280;7779;49.596;11.070;2023-06-19T08:20:38;98048.19;;;31.25
15360;BMP280;7779;49.596;11.070;2023-06-19T08:23:04;98042.00;;;31.31
15360;BMP280;7779;49.596;11.070;2023-06-19T08:25:30;98039.25;;;31.37
15360;BMP280;7779;49.596;11.070;2023-06-19T08:27:55;98035.63;;;31.42
15360;BMP280;7779;49.596;11.070;2023-06-19T08:30:21;98041.31;;;31.53
15360;BMP280;7779;49.596;11.070;2023-06-19T08:32:47;98040.03;;;31.66
15360;BMP280;7779;49.596;11.070;2023-06-19T08:35:15;98044.63;;;31.84
15360;BMP280;7779;49.596;11.070;2023-06-19T08:37:41;98039.81;;;31.99
15360;BMP280;7779;49.596;11.070;2023-06-19T08:40:07;98045.41;;;32.13
15360;BMP280;7779;49.596;11.070;2023-06-19T08:42:36;98044.34;;;32.18
15360;BMP280;7779;49.596;11.070;2023-06-19T08:45:02;98045.84;;;32.25
15360;BMP280;7779;49.596;11.070;2023-06-19T08:47:32;98053.53;;;32.28
15360;BMP280;7779;49.596;11.070;2023-06-19T08:49:59;98046.66;;;32.27
15360;BMP280;7779;49.596;11.070;2023-06-19T08:52:25;98053.63;;;32.25
15360;BMP280;7779;49.596;11.070;2023-06-19T08:54:51;98050.34;;;32.20
15360;BMP280;7779;49.596;11.070;2023-06-19T08:57:17;98052.31;;;32.14
15360;BMP280;7779;49.596;11.070;2023-06-19T08:59:52;98057.78;;;32.05
15360;BMP280;7779;49.596;11.070;2023-06-19T09:02:17;98056.28;;;31.98
15360;BMP280;7779;49.596;11.070;2023-06-19T09:04:43;98066.19;;;31.86
15360;BMP280;7779;49.596;11.070;2023-06-19T09:07:12;98065.59;;;31.76
15360;BMP280;7779;49.596;11.070;2023-06-19T09:09:45;98066.72;;;31.68
15360;BMP280;7779;49.596;11.070;2023-06-19T09:12:14;98059.25;;;31.59
15360;BMP280;7779;49.596;11.070;2023-06-19T09:14:45;98058.59;;;31.52
15360;BMP280;7779;49.596;11.070;2023-06-19T09:17:21;98057.22;;;31.41
15360;BMP280;7779;49.596;11.070;2023-06-19T09:19:54;98054.97;;;31.29
15360;BMP280;7779;49.596;11.070;2023-06-19T09:22:22;98054.41;;;31.20
15360;BMP280;7779;49.596;11.070;2023-06-19T09:24:50;98056.38;;;31.10
15360;BMP280;7779;49.596;11.070;2023-06-19T09:27:20;98054.06;;;31.02
15360;BMP280;7779;49.596;11.070;2023-06-19T09:29:48;98062.16;;;30.91
15360;BMP280;7779;49.596;11.070;2023-06-19T09:32:25;98053.72;;;30.83
15360;BMP280;7779;49.596;11.070;2023-06-19T09:34:55;98053.03;;;30.77
15360;BMP280;7779;49.596;11.070;2023-06-19T09:37:28;98057.44;;;30.73
15360;BMP280;7779;49.596;11.070;2023-06-19T09:40:00;98053.25;;;30.70
15360;BMP280;7779;49.596;11.070;2023-06-19T09:42:34;98055.88;;;30.68
15360;BMP280;7779;49.596;11.070;2023-06-19T09:45:06;98055.16;;;30.63
15360;BMP280;7779;49.596;11.070;2023-06-19T09:47:38;98053.50;;;30.61
15360;BMP280;7779;49.596;11.070;2023-06-19T09:50:05;98058.72;;;30.59
15360;BMP280;7779;49.596;11.070;2023-06-19T09:52:32;98058.78;;;30.56
15360;BMP280;7779;49.596;11.070;2023-06-19T09:55:05;98067.44;;;30.55
15360;BMP280;7779;49.596;11.070;2023-06-19T09:57:33;98052.78;;;30.56
15360;BMP280;7779;49.596;11.070;2023-06-19T10:00:02;98058.66;;;30.61
15360;BMP280;7779;49.596;11.070;2023-06-19T10:02:48;98046.34;;;30.70
15360;BMP280;7779;49.596;11.070;2023-06-19T10:05:14;98045.16;;;30.81
15360;BMP280;7779;49.596;11.070;2023-06-19T10:07:44;98048.19;;;30.97
15360;BMP280;7779;49.596;11.070;2023-06-19T10:10:23;98045.16;;;31.11
15360;BMP280;7779;49.596;11.070;2023-06-19T10:12:49;98046.50;;;31.24
15360;BMP280;7779;49.596;11.070;2023-06-19T10:15:17;98040.88;;;31.39
15360;BMP280;7779;49.596;11.070;2023-06-19T10:18:01;98049.84;;;31.56
15360;BMP280;7779;49.596;11.070;2023-06-19T10:20:36;98044.84;;;31.78
15360;BMP280;7779;49.596;11.070;2023-06-19T10:23:13;98040.69;;;31.99
15360;BMP280;7779;49.596;11.070;2023-06-19T10:25:48;98037.63;;;32.13
15360;BMP280;7779;49.596;11.070;2023-06-19T10:31:06;98033.63;;;32.29
15360;BMP280;7779;49.596;11.070;2023-06-19T10:33:37;98037.06;;;32.29
15360;BMP280;7779;49.596;11.070;2023-06-19T10:36:17;98031.94;;;32.28
15360;BMP280;7779;49.596;11.070;2023-06-19T10:38:44;98026.75;;;32.28
15360;BMP280;7779;49.596;11.070;2023-06-19T10:41:20;98032.66;;;32.31
15360;BMP280;7779;49.596;11.070;2023-06-19T10:44:00;98018.81;;;32.32
15360;BMP280;7779;49.596;11.070;2023-06-19T10:46:31;98022.22;;;32.34
15360;BMP280;7779;49.596;11.070;2023-06-19T10:48:59;98017.84;;;32.34
15360;BMP280;7779;49.596;11.070;2023-06-19T10:51:40;98010.91;;;32.35
15360;BMP280;7779;49.596;11.070;2023-06-19T10:54:07;98010.06;;;32.34
15360;BMP280;7779;49.596;11.070;2023-06-19T10:56:34;98003.13;;;32.35
15360;BMP280;7779;49.596;11.070;2023-06-19T10:59:03;98000.44;;;32.39
15360;BMP280;7779;49.596;11.070;2023-06-19T11:01:40;97995.16;;;32.42
15360;BMP280;7779;49.596;11.070;2023-06-19T11:04:08;97995.03;;;32.45
15360;BMP280;7779;49.596;11.070;2023-06-19T11:06:36;97989.75;;;32.48
15360;BMP280;7779;49.596;11.070;2023-06-19T11:09:04;97993.88;;;32.54
15360;BMP280;7779;49.596;11.070;2023-06-19T11:14:03;97984.03;;;32.62
15360;BMP280;7779;49.596;11.070;2023-06-19T11:16:29;97989.13;;;32.65
15360;BMP280;7779;49.596;11.070;2023-06-19T11:18:58;97985.47;;;32.70
15360;BMP280;7779;49.596;11.070;2023-06-19T11:21:37;97985.38;;;32.73
15360;BMP280;7779;49.596;11.070;2023-06-19T11:24:12;97993.91;;;32.76
15360;BMP280;7779;49.596;11.070;2023-06-19T11:26:41;97984.34;;;32.77
15360;BMP280;7779;49.596;11.070;2023-06-19T11:29:24;97978.25;;;32.78
15360;BMP280;7779;49.596;11.070;2023-06-19T11:32:04;97974.75;;;32.79
15360;BMP280;7779;49.596;11.070;2023-06-19T11:34:35;97977.94;;;32.87
15360;BMP280;7779;49.596;11.070;2023-06-19T11:37:16;97976.88;;;32.92
15360;BMP280;7779;49.596;11.070;2023-06-19T11:39:45;97971.56;;;32.95
15360;BMP280;7779;49.596;11.070;2023-06-19T11:42:11;97970.53;;;32.99
15360;BMP280;7779;49.596;11.070;2023-06-19T11:44:59;97972.13;;;33.03
15360;BMP280;7779;49.596;11.070;2023-06-19T11:47:29;97969.41;;;33.06
15360;BMP280;7779;49.596;11.070;2023-06-19T11:49:55;97967.50;;;33.11
15360;BMP280;7779;49.596;11.070;2023-06-19T11:52:22;97962.13;;;33.15
15360;BMP280;7779;49.596;11.070;2023-06-19T11:54:47;97956.56;;;33.24
15360;BMP280;7779;49.596;11.070;2023-06-19T11:57:13;97964.84;;;33.34
15360;BMP280;7779;49.596;11.070;2023-06-19T11:59:42;97952.31;;;33.45
15360;BMP280;7779;49.596;11.070;2023-06-19T12:02:09;97952.06;;;33.51
15360;BMP280;7779;49.596;11.070;2023-06-19T12:04:35;97944.03;;;33.56
15360;BMP280;7779;49.596;11.070;2023-06-19T12:07:01;97949.75;;;33.64
15360;BMP280;7779;49.596;11.070;2023-06-19T12:09:30;97943.22;;;33.76
15360;BMP280;7779;49.596;11.070;2023-06-19T12:11:58;97928.91;;;33.87
15360;BMP280;7779;49.596;11.070;2023-06-19T12:14:23;97929.56;;;33.92
15360;BMP280;7779;49.596;11.070;2023-06-19T12:16:50;97931.22;;;33.93
15360;BMP280;7779;49.596;11.070;2023-06-19T12:19:16;97932.41;;;33.86
15360;BMP280;7779;49.596;11.070;2023-06-19T12:21:42;97928.19;;;33.82
15360;BMP280;7779;49.596;11.070;2023-06-19T12:24:08;97916.13;;;33.81
15360;BMP280;7779;49.596;11.070;2023-06-19T12:26:35;97927.28;;;33.85
15360;BMP280;7779;49.596;11.070;2023-06-19T12:29:04;97919.28;;;33.89
15360;BMP280;7779;49.596;11.070;2023-06-19T12:31:32;97913.91;;;33.93
15360;BMP280;7779;49.596;11.070;2023-06-19T12:33:58;97913.41;;;34.04
15360;BMP280;7779;49.596;11.070;2023-06-19T12:36:24;97910.44;;;34.13
15360;BMP280;7779;49.596;11.070;2023-06-19T12:38:53;97896.31;;;34.18
15360;BMP280;7779;49.596;11.070;2023-06-19T12:41:22;97922.25;;;34.20
15360;BMP280;7779;49.596;11.070;2023-06-19T12:43:48;97918.59;;;34.24
15360;BMP280;7779;49.596;11.070;2023-06-19T12:46:14;97920.03;;;34.30
15360;BMP280;7779;49.596;11.070;2023-06-19T12:48:41;97923.19;;;34.38
15360;BMP280;7779;49.596;11.070;2023-06-19T12:51:07;97914.94;;;34.47
15360;BMP280;7779;49.596;11.070;2023-06-19T12:53:33;97912.72;;;34.58
15360;BMP280;7779;49.596;11.070;2023-06-19T12:55:59;97907.91;;;34.69
15360;BMP280;7779;49.596;11.070;2023-06-19T12:58:25;97910.88;;;34.80
15360;BMP280;7779;49.596;11.070;2023-06-19T13:00:52;97911.22;;;34.91
15360;BMP280;7779;49.596;11.070;2023-06-19T13:03:18;97909.81;;;35.02
15360;BMP280;7779;49.596;11.070;2023-06-19T13:05:46;97906.69;;;35.12
15360;BMP280;7779;49.596;11.070;2023-06-19T13:08:11;97894.16;;;35.20
15360;BMP280;7779;49.596;11.070;2023-06-19T13:10:37;97893.88;;;35.26
15360;BMP280;7779;49.596;11.070;2023-06-19T13:13:04;97899.78;;;35.30
15360;BMP280;7779;49.596;11.070;2023-06-19T13:15:31;97892.72;;;35.32
15360;BMP280;7779;49.596;11.070;2023-06-19T13:17:59;97896.09;;;35.34
15360;BMP280;7779;49.596;11.070;2023-06-19T13:20:25;97889.22;;;35.33
15360;BMP280;7779;49.596;11.070;2023-06-19T13:22:51;97889.28;;;35.31
15360;BMP280;7779;49.596;11.070;2023-06-19T13:25:18;97885.84;;;35.31
15360;BMP280;7779;49.596;11.070;2023-06-19T13:27:44;97886.06;;;35.26
15360;BMP280;7779;49.596;11.070;2023-06-19T13:30:11;97894.00;;;35.23
15360;BMP280;7779;49.596;11.070;2023-06-19T13:32:37;97886.47;;;35.17
15360;BMP280;7779;49.596;11.070;2023-06-19T13:35:05;97886.47;;;35.17
15360;BMP280;7779;49.596;11.070;2023-06-19T13:37:34;97887.28;;;35.19
15360;BMP280;7779;49.596;11.070;2023-06-19T13:40:00;97881.75;;;35.25
15360;BMP280;7779;49.596;11.070;2023-06-19T13:42:29;97881.34;;;35.34
15360;BMP280;7779;49.596;11.070;2023-06-19T13:44:55;97879.38;;;35.39
15360;BMP280;7779;49.596;11.070;2023-06-19T13:47:20;97879.19;;;35.42
15360;BMP280;7779;49.596;11.070;2023-06-19T13:49:46;97885.16;;;35.44
15360;BMP280;7779;49.596;11.070;2023-06-19T13:52:12;97876.59;;;35.42
15360;BMP280;7779;49.596;11.070;2023-06-19T13:54:37;97872.31;;;35.41
15360;BMP280;7779;49.596;11.070;2023-06-19T13:57:04;97875.00;;;35.40
15360;BMP280;7779;49.596;11.070;2023-06-19T13:59:30;97873.22;;;35.40
15360;BMP280;7779;49.596;11.070;2023-06-19T14:01:55;97867.00;;;35.43
15360;BMP280;7779;49.596;11.070;2023-06-19T14:04:21;97869.53;;;35.44
15360;BMP280;7779;49.596;11.070;2023-06-19T14:06:47;97864.25;;;35.46
15360;BMP280;7779;49.596;11.070;2023-06-19T14:09:13;97871.06;;;35.48
15360;BMP280;7779;49.596;11.070;2023-06-19T14:11:39;97867.56;;;35.49
15360;BMP280;7779;49.596;11.070;2023-06-19T14:14:04;97873.69;;;35.48
15360;BMP280;7779;49.596;11.070;2023-06-19T14:16:30;97876.38;;;35.47
15360;BMP280;7779;49.596;11.070;2023-06-19T14:18:56;97879.81;;;35.47